sensor_id;sensor_type;location;lat;lon;timestamp;temperature;humidity
68912;SHT31;55953;51.650;-0.522;2023-01-09T00:01:36;6.30;92.73
68912;SHT31;55953;51.650;-0.522;2023-01-09T00:04:09;6.22;92.54
68912;SHT31;55953;51.650;-0.522;2023-01-09T00:06:37;6.17;92.49
68912;SHT31;55953;51.650;-0.522;2023-01-09T00:09:10;6.16;92.53
68912;SHT31;55953;51.650;-0.522;2023-01-09T00:11:38;6.14;92.60
68912;SHT31;55953;51.650;-0.522;2023-01-09T00:14:06;6.15;92.57
68912;SHT31;55953;51.650;-0.522;2023-01-09T00:16:36;6.20;92.63
68912;SHT31;55953;51.650;-0.522;2023-01-09T00:19:03;6.26;92.71
68912;SHT31;55953;51.650;-0.522;2023-01-09T00:21:31;6.26;92.50
68912;SHT31;55953;51.650;-0.522;2023-01-09T00:23:59;6.17;92.28
68912;SHT31;55953;51.650;-0.522;2023-01-09T00:26:27;6.10;92.21
68912;SHT31;55953;51.650;-0.522;2023-01-09T00:28:56;6.03;92.11
68912;SHT31;55953;51.650;-0.522;2023-01-09T00:31:24;6.03;92.36
68912;SHT31;55953;51.650;-0.522;2023-01-09T00:36:28;6.03;92.24
68912;SHT31;55953;51.650;-0.522;2023-01-09T00:38:57;5.98;92.27
68912;SHT31;55953;51.650;-0.522;2023-01-09T00:41:35;5.98;92.32
68912;SHT31;55953;51.650;-0.522;2023-01-09T00:44:12;5.94;92.30
68912;SHT31;55953;51.650;-0.522;2023-01-09T00:46:47;5.92;92.43
68912;SHT31;55953;51.650;-0.522;2023-01-09T00:49:20;5.93;92.54
68912;SHT31;55953;51.650;-0.522;2023-01-09T00:51:48;5.87;92.35
68912;SHT31;55953;51.650;-0.522;2023-01-09T00:54:18;5.84;92.46
68912;SHT31;55953;51.650;-0.522;2023-01-09T00:56:46;5.76;92.34
68912;SHT31;55953;51.650;-0.522;2023-01-09T00:59:16;5.72;92.42
68912;SHT31;55953;51.650;-0.522;2023-01-09T01:01:44;5.70;92.46
68912;SHT31;55953;51.650;-0.522;2023-01-09T01:04:12;5.66;92.43
68912;SHT31;55953;51.650;-0.522;2023-01-09T01:06:58;5.62;92.47
68912;SHT31;55953;51.650;-0.522;2023-01-09T01:09:44;5.59;92.47
68912;SHT31;55953;51.650;-0.522;2023-01-09T01:12:12;5.57;92.46
68912;SHT31;55953;51.650;-0.522;2023-01-09T01:14:40;5.50;92.42
68912;SHT31;55953;51.650;-0.522;2023-01-09T01:17:08;5.48;92.52
68912;SHT31;55953;51.650;-0.522;2023-01-09T01:19:36;5.46;92.54
68912;SHT31;55953;51.650;-0.522;2023-01-09T01:22:03;5.46;92.66
68912;SHT31;55953;51.650;-0.522;2023-01-09T01:24:31;5.44;92.58
68912;SHT31;55953;51.650;-0.522;2023-01-09T01:26:59;5.39;92.51
68912;SHT31;55953;51.650;-0.522;2023-01-09T01:29:27;5.39;92.57
68912;SHT31;55953;51.650;-0.522;2023-01-09T01:31:55;5.41;92.62
68912;SHT31;55953;51.650;-0.522;2023-01-09T01:34:23;5.38;92.53
68912;SHT31;55953;51.650;-0.522;2023-01-09T01:36:51;5.37;92.58
68912;SHT31;55953;51.650;-0.522;2023-01-09T01:39:19;5.41;92.68
68912;SHT31;55953;51.650;-0.522;2023-01-09T01:41:46;5.42;92.53
68912;SHT31;55953;51.650;-0.522;2023-01-09T01:47:24;5.49;92.63
68912;SHT31;55953;51.650;-0.522;2023-01-09T01:49:58;5.51;92.57
68912;SHT31;55953;51.650;-0.522;2023-01-09T01:52:30;5.55;92.58
68912;SHT31;55953;51.650;-0.522;2023-01-09T01:55:01;5.57;92.52
68912;SHT31;55953;51.650;-0.522;2023-01-09T01:57:34;5.60;92.54
68912;SHT31;55953;51.650;-0.522;2023-01-09T02:00:05;5.65;92.48
68912;SHT31;55953;51.650;-0.522;2023-01-09T02:02:34;5.72;92.43
68912;SHT31;55953;51.650;-0.522;2023-01-09T02:05:03;5.76;92.32
68912;SHT31;55953;51.650;-0.522;2023-01-09T02:07:32;5.78;92.21
68912;SHT31;55953;51.650;-0.522;2023-01-09T02:10:01;5.81;92.01
68912;SHT31;55953;51.650;-0.522;2023-01-09T02:12:29;5.82;91.92
68912;SHT31;55953;51.650;-0.522;2023-01-09T02:15:05;5.80;91.88
68912;SHT31;55953;51.650;-0.522;2023-01-09T02:18:00;5.77;91.79
68912;SHT31;55953;51.650;-0.522;2023-01-09T02:29:30;5.60;91.63
68912;SHT31;55953;51.650;-0.522;2023-01-09T02:35:48;5.47;91.70
68912;SHT31;55953;51.650;-0.522;2023-01-09T02:41:16;5.42;91.72
68912;SHT31;55953;51.650;-0.522;2023-01-09T02:44:10;5.39;91.70
68912;SHT31;55953;51.650;-0.522;2023-01-09T02:47:41;5.32;91.70
68912;SHT31;55953;51.650;-0.522;2023-01-09T02:49:48;5.26;91.69
68912;SHT31;55953;51.650;-0.522;2023-01-09T03:09:22;4.99;92.03
68912;SHT31;55953;51.650;-0.522;2023-01-09T03:12:00;4.98;92.14
68912;SHT31;55953;51.650;-0.522;2023-01-09T03:14:38;4.96;92.15
68912;SHT31;55953;51.650;-0.522;2023-01-09T03:17:15;4.94;92.16
68912;SHT31;55953;51.650;-0.522;2023-01-09T03:19:52;4.94;92.12
68912;SHT31;55953;51.650;-0.522;2023-01-09T03:22:23;4.92;92.13
68912;SHT31;55953;51.650;-0.522;2023-01-09T03:24:51;4.90;92.13
68912;SHT31;55953;51.650;-0.522;2023-01-09T03:27:19;4.89;92.10
68912;SHT31;55953;51.650;-0.522;2023-01-09T03:29:47;4.85;92.02
68912;SHT31;55953;51.650;-0.522;2023-01-09T03:32:14;4.80;92.04
68912;SHT31;55953;51.650;-0.522;2023-01-09T03:34:42;4.78;92.11
68912;SHT31;55953;51.650;-0.522;2023-01-09T03:37:10;4.76;92.18
68912;SHT31;55953;51.650;-0.522;2023-01-09T03:39:38;4.75;92.19
68912;SHT31;55953;51.650;-0.522;2023-01-09T03:42:05;4.75;92.20
68912;SHT31;55953;51.650;-0.522;2023-01-09T03:44:33;4.72;92.19
68912;SHT31;55953;51.650;-0.522;2023-01-09T03:47:01;4.71;92.15
68912;SHT31;55953;51.650;-0.522;2023-01-09T03:49:29;4.68;92.16
68912;SHT31;55953;51.650;-0.522;2023-01-09T03:51:57;4.64;92.20
68912;SHT31;55953;51.650;-0.522;2023-01-09T03:54:24;4.60;92.23
68912;SHT31;55953;51.650;-0.522;2023-01-09T03:56:52;4.58;92.24
68912;SHT31;55953;51.650;-0.522;2023-01-09T03:59:20;4.54;92.32
68912;SHT31;55953;51.650;-0.522;2023-01-09T04:01:47;4.52;92.35
68912;SHT31;55953;51.650;-0.522;2023-01-09T04:04:15;4.52;92.46
68912;SHT31;55953;51.650;-0.522;2023-01-09T04:06:43;4.51;92.40
68912;SHT31;55953;51.650;-0.522;2023-01-09T04:09:11;4.49;92.43
68912;SHT31;55953;51.650;-0.522;2023-01-09T04:11:39;4.49;92.50
68912;SHT31;55953;51.650;-0.522;2023-01-09T04:14:06;4.48;92.51
68912;SHT31;55953;51.650;-0.522;2023-01-09T04:16:34;4.48;92.50
68912;SHT31;55953;51.650;-0.522;2023-01-09T04:19:02;4.49;92.67
68912;SHT31;55953;51.650;-0.522;2023-01-09T04:21:30;4.52;92.72
68912;SHT31;55953;51.650;-0.522;2023-01-09T04:23:58;4.51;92.69
68912;SHT31;55953;51.650;-0.522;2023-01-09T04:26:26;4.51;92.63
68912;SHT31;55953;51.650;-0.522;2023-01-09T04:28:53;4.50;92.60
68912;SHT31;55953;51.650;-0.522;2023-01-09T04:31:21;4.49;92.59
68912;SHT31;55953;51.650;-0.522;2023-01-09T04:33:49;4.47;92.53
68912;SHT31;55953;51.650;-0.522;2023-01-09T04:36:16;4.47;92.61
68912;SHT31;55953;51.650;-0.522;2023-01-09T04:38:44;4.46;92.61
68912;SHT31;55953;51.650;-0.522;2023-01-09T04:41:12;4.45;92.65
68912;SHT31;55953;51.650;-0.522;2023-01-09T04:44:02;4.44;92.70
68912;SHT31;55953;51.650;-0.522;2023-01-09T04:46:30;4.40;92.64
68912;SHT31;55953;51.650;-0.522;2023-01-09T04:48:58;4.37;92.69
68912;SHT31;55953;51.650;-0.522;2023-01-09T04:51:26;4.36;92.72
68912;SHT31;55953;51.650;-0.522;2023-01-09T04:53:54;4.34;92.74
68912;SHT31;55953;51.650;-0.522;2023-01-09T04:56:21;4.30;92.72
68912;SHT31;55953;51.650;-0.522;2023-01-09T04:58:49;4.29;92.84
68912;SHT31;55953;51.650;-0.522;2023-01-09T05:01:17;4.32;92.97
68912;SHT31;55953;51.650;-0.522;2023-01-09T05:03:45;4.33;92.98
68912;SHT31;55953;51.650;-0.522;2023-01-09T05:06:13;4.33;93.02
68912;SHT31;55953;51.650;-0.522;2023-01-09T05:08:40;4.35;92.97
68912;SHT31;55953;51.650;-0.522;2023-01-09T05:11:08;4.36;93.00
68912;SHT31;55953;51.650;-0.522;2023-01-09T05:13:36;4.35;92.89
68912;SHT31;55953;51.650;-0.522;2023-01-09T05:16:04;4.35;92.87
68912;SHT31;55953;51.650;-0.522;2023-01-09T05:18:32;4.40;93.07
68912;SHT31;55953;51.650;-0.522;2023-01-09T05:21:00;4.45;93.06
68912;SHT31;55953;51.650;-0.522;2023-01-09T05:23:28;4.46;92.91
68912;SHT31;55953;51.650;-0.522;2023-01-09T05:25:56;4.49;92.93
68912;SHT31;55953;51.650;-0.522;2023-01-09T05:28:24;4.52;92.97
68912;SHT31;55953;51.650;-0.522;2023-01-09T05:30:51;4.54;92.86
68912;SHT31;55953;51.650;-0.522;2023-01-09T05:33:19;4.52;92.82
68912;SHT31;55953;51.650;-0.522;2023-01-09T05:35:47;4.53;92.83
68912;SHT31;55953;51.650;-0.522;2023-01-09T05:38:15;4.52;92.79
68912;SHT31;55953;51.650;-0.522;2023-01-09T05:40:43;4.48;92.72
68912;SHT31;55953;51.650;-0.522;2023-01-09T05:43:10;4.49;92.85
68912;SHT31;55953;51.650;-0.522;2023-01-09T05:45:38;4.50;92.86
68912;SHT31;55953;51.650;-0.522;2023-01-09T05:48:06;4.47;92.82
68912;SHT31;55953;51.650;-0.522;2023-01-09T05:50:34;4.47;92.91
68912;SHT31;55953;51.650;-0.522;2023-01-09T05:53:02;4.49;93.00
68912;SHT31;55953;51.650;-0.522;2023-01-09T05:55:29;4.48;92.89
68912;SHT31;55953;51.650;-0.522;2023-01-09T05:57:57;4.44;92.81
68912;SHT31;55953;51.650;-0.522;2023-01-09T06:00:25;4.35;92.69
68912;SHT31;55953;51.650;-0.522;2023-01-09T06:02:53;4.26;92.61
68912;SHT31;55953;51.650;-0.522;2023-01-09T06:05:21;4.24;92.75
68912;SHT31;55953;51.650;-0.522;2023-01-09T06:07:49;4.21;92.77
68912;SHT31;55953;51.650;-0.522;2023-01-09T06:10:17;4.16;92.73
68912;SHT31;55953;51.650;-0.522;2023-01-09T06:12:48;4.14;92.80
68912;SHT31;55953;51.650;-0.522;2023-01-09T06:15:17;4.12;92.86
68912;SHT31;55953;51.650;-0.522;2023-01-09T06:17:47;4.13;92.98
68912;SHT31;55953;51.650;-0.522;2023-01-09T06:20:14;4.18;93.00
68912;SHT31;55953;51.650;-0.522;2023-01-09T06:22:42;4.18;92.98
68912;SHT31;55953;51.650;-0.522;2023-01-09T06:25:11;4.18;92.95
68912;SHT31;55953;51.650;-0.522;2023-01-09T06:27:39;4.18;92.99
68912;SHT31;55953;51.650;-0.522;2023-01-09T06:30:07;4.19;93.00
68912;SHT31;55953;51.650;-0.522;2023-01-09T06:32:36;4.20;92.98
68912;SHT31;55953;51.650;-0.522;2023-01-09T06:35:04;4.19;92.96
68912;SHT31;55953;51.650;-0.522;2023-01-09T06:37:33;4.20;92.95
68912;SHT31;55953;51.650;-0.522;2023-01-09T06:40:00;4.22;93.01
68912;SHT31;55953;51.650;-0.522;2023-01-09T06:42:28;4.24;93.00
68912;SHT31;55953;51.650;-0.522;2023-01-09T06:44:56;4.24;92.97
68912;SHT31;55953;51.650;-0.522;2023-01-09T06:47:24;4.24;92.99
68912;SHT31;55953;51.650;-0.522;2023-01-09T06:49:51;4.24;93.00
68912;SHT31;55953;51.650;-0.522;2023-01-09T06:52:19;4.24;92.96
68912;SHT31;55953;51.650;-0.522;2023-01-09T06:54:47;4.21;92.92
68912;SHT31;55953;51.650;-0.522;2023-01-09T06:57:15;4.20;92.97
68912;SHT31;55953;51.650;-0.522;2023-01-09T06:59:43;4.17;92.94
68912;SHT31;55953;51.650;-0.522;2023-01-09T07:02:14;4.12;92.90
68912;SHT31;55953;51.650;-0.522;2023-01-09T07:04:46;4.09;92.96
68912;SHT31;55953;51.650;-0.522;2023-01-09T07:07:15;4.04;92.99
68912;SHT31;55953;51.650;-0.522;2023-01-09T07:09:43;4.06;93.13
68912;SHT31;55953;51.650;-0.522;2023-01-09T07:12:11;4.02;93.09
68912;SHT31;55953;51.650;-0.522;2023-01-09T07:14:39;3.99;93.12
68912;SHT31;55953;51.650;-0.522;2023-01-09T07:17:08;3.97;93.18
68912;SHT31;55953;51.650;-0.522;2023-01-09T07:19:39;3.91;93.11
68912;SHT31;55953;51.650;-0.522;2023-01-09T07:22:08;3.89;93.09
68912;SHT31;55953;51.650;-0.522;2023-01-09T07:24:37;3.90;93.23
68912;SHT31;55953;51.650;-0.522;2023-01-09T07:27:05;3.92;93.27
68912;SHT31;55953;51.650;-0.522;2023-01-09T07:29:32;3.90;93.21
68912;SHT31;55953;51.650;-0.522;2023-01-09T07:32:00;3.88;93.18
68912;SHT31;55953;51.650;-0.522;2023-01-09T07:34:30;3.82;93.11
68912;SHT31;55953;51.650;-0.522;2023-01-09T07:36:57;3.78;93.12
68912;SHT31;55953;51.650;-0.522;2023-01-09T07:39:25;3.77;93.19
68912;SHT31;55953;51.650;-0.522;2023-01-09T07:41:53;3.74;93.19
68912;SHT31;55953;51.650;-0.522;2023-01-09T07:44:21;3.72;93.21
68912;SHT31;55953;51.650;-0.522;2023-01-09T07:46:49;3.72;93.26
68912;SHT31;55953;51.650;-0.522;2023-01-09T07:49:17;3.68;93.25
68912;SHT31;55953;51.650;-0.522;2023-01-09T07:51:44;3.65;93.23
68912;SHT31;55953;51.650;-0.522;2023-01-09T07:54:14;3.63;93.30
68912;SHT31;55953;51.650;-0.522;2023-01-09T07:56:42;3.65;93.45
68912;SHT31;55953;51.650;-0.522;2023-01-09T07:59:10;3.67;93.45
68912;SHT31;55953;51.650;-0.522;2023-01-09T08:01:38;3.64;93.42
68912;SHT31;55953;51.650;-0.522;2023-01-09T08:04:07;3.62;93.36
68912;SHT31;55953;51.650;-0.522;2023-01-09T08:06:34;3.55;93.31
68912;SHT31;55953;51.650;-0.522;2023-01-09T08:09:02;3.53;93.21
68912;SHT31;55953;51.650;-0.522;2023-01-09T08:11:30;3.53;93.25
68912;SHT31;55953;51.650;-0.522;2023-01-09T08:13:58;3.56;93.34
68912;SHT31;55953;51.650;-0.522;2023-01-09T08:16:26;3.62;93.37
68912;SHT31;55953;51.650;-0.522;2023-01-09T08:18:54;3.70;93.48
68912;SHT31;55953;51.650;-0.522;2023-01-09T08:21:22;3.78;93.45
68912;SHT31;55953;51.650;-0.522;2023-01-09T08:23:50;3.87;93.42
68912;SHT31;55953;51.650;-0.522;2023-01-09T08:26:18;3.97;93.45
68912;SHT31;55953;51.650;-0.522;2023-01-09T08:28:46;4.05;93.42
68912;SHT31;55953;51.650;-0.522;2023-01-09T08:31:14;4.14;93.37
68912;SHT31;55953;51.650;-0.522;2023-01-09T08:33:43;4.21;93.31
68912;SHT31;55953;51.650;-0.522;2023-01-09T08:36:11;4.26;93.20
68912;SHT31;55953;51.650;-0.522;2023-01-09T08:38:39;4.33;93.17
68912;SHT31;55953;51.650;-0.522;2023-01-09T08:41:07;4.38;93.11
68912;SHT31;55953;51.650;-0.522;2023-01-09T08:43:54;4.42;92.92
68912;SHT31;55953;51.650;-0.522;2023-01-09T08:46:41;4.41;92.80
68912;SHT31;55953;51.650;-0.522;2023-01-09T08:49:28;4.46;92.78
68912;SHT31;55953;51.650;-0.522;2023-01-09T08:51:55;4.53;92.72
68912;SHT31;55953;51.650;-0.522;2023-01-09T08:54:23;4.61;92.63
68912;SHT31;55953;51.650;-0.522;2023-01-09T08:56:51;4.69;92.46
68912;SHT31;55953;51.650;-0.522;2023-01-09T08:59:19;4.78;92.28
68912;SHT31;55953;51.650;-0.522;2023-01-09T09:01:47;4.89;92.21
68912;SHT31;55953;51.650;-0.522;2023-01-09T09:04:15;5.00;92.04
68912;SHT31;55953;51.650;-0.522;2023-01-09T09:06:43;5.12;91.93
68912;SHT31;55953;51.650;-0.522;2023-01-09T09:09:11;5.25;91.95
68912;SHT31;55953;51.650;-0.522;2023-01-09T09:11:38;5.35;91.45
68912;SHT31;55953;51.650;-0.522;2023-01-09T09:14:06;5.45;91.26
68912;SHT31;55953;51.650;-0.522;2023-01-09T09:16:53;5.56;91.32
68912;SHT31;55953;51.650;-0.522;2023-01-09T09:19:21;5.62;91.05
68912;SHT31;55953;51.650;-0.522;2023-01-09T09:21:49;5.68;90.98
68912;SHT31;55953;51.650;-0.522;2023-01-09T09:24:17;5.70;90.76
68912;SHT31;55953;51.650;-0.522;2023-01-09T09:26:44;5.74;90.74
68912;SHT31;55953;51.650;-0.522;2023-01-09T09:29:12;5.77;90.68
68912;SHT31;55953;51.650;-0.522;2023-01-09T09:31:40;5.80;90.85
68912;SHT31;55953;51.650;-0.522;2023-01-09T09:34:08;5.84;90.95
68912;SHT31;55953;51.650;-0.522;2023-01-09T09:36:37;5.87;90.79
68912;SHT31;55953;51.650;-0.522;2023-01-09T09:39:05;5.88;90.92
68912;SHT31;55953;51.650;-0.522;2023-01-09T09:41:40;5.91;90.73
68912;SHT31;55953;51.650;-0.522;2023-01-09T09:54:03;6.02;89.50
68912;SHT31;55953;51.650;-0.522;2023-01-09T09:56:42;6.10;88.65
68912;SHT31;55953;51.650;-0.522;2023-01-09T09:59:19;6.16;88.36
68912;SHT31;55953;51.650;-0.522;2023-01-09T10:02:01;6.21;88.27
68912;SHT31;55953;51.650;-0.522;2023-01-09T10:04:56;6.25;88.22
68912;SHT31;55953;51.650;-0.522;2023-01-09T10:07:34;6.29;88.33
68912;SHT31;55953;51.650;-0.522;2023-01-09T10:10:14;6.36;88.29
68912;SHT31;55953;51.650;-0.522;2023-01-09T10:13:11;6.49;87.81
68912;SHT31;55953;51.650;-0.522;2023-01-09T10:37:24;7.37;85.21
68912;SHT31;55953;51.650;-0.522;2023-01-09T10:40:17;7.32;85.01
68912;SHT31;55953;51.650;-0.522;2023-01-09T10:42:57;7.25;85.55
68912;SHT31;55953;51.650;-0.522;2023-01-09T10:48:27;7.13;85.36
68912;SHT31;55953;51.650;-0.522;2023-01-09T10:51:10;7.08;85.64
68912;SHT31;55953;51.650;-0.522;2023-01-09T10:53:50;7.04;86.12
68912;SHT31;55953;51.650;-0.522;2023-01-09T10:56:22;7.02;86.11
68912;SHT31;55953;51.650;-0.522;2023-01-09T10:58:54;7.02;85.78
68912;SHT31;55953;51.650;-0.522;2023-01-09T11:01:26;7.06;86.17
68912;SHT31;55953;51.650;-0.522;2023-01-09T11:03:59;7.08;85.62
68912;SHT31;55953;51.650;-0.522;2023-01-09T11:06:34;7.11;85.45
68912;SHT31;55953;51.650;-0.522;2023-01-09T11:09:17;7.14;85.36
68912;SHT31;55953;51.650;-0.522;2023-01-09T11:11:45;7.17;84.90
68912;SHT31;55953;51.650;-0.522;2023-01-09T11:14:14;7.19;84.70
68912;SHT31;55953;51.650;-0.522;2023-01-09T11:16:54;7.22;85.25
68912;SHT31;55953;51.650;-0.522;2023-01-09T11:19:25;7.25;85.67
68912;SHT31;55953;51.650;-0.522;2023-01-09T11:22:07;7.28;84.85
68912;SHT31;55953;51.650;-0.522;2023-01-09T11:24:43;7.33;84.76
68912;SHT31;55953;51.650;-0.522;2023-01-09T11:29:41;7.40;84.41
68912;SHT31;55953;51.650;-0.522;2023-01-09T11:32:22;7.46;83.72
68912;SHT31;55953;51.650;-0.522;2023-01-09T11:34:59;7.51;83.27
68912;SHT31;55953;51.650;-0.522;2023-01-09T11:37:31;7.55;82.36
68912;SHT31;55953;51.650;-0.522;2023-01-09T11:40:00;7.59;82.55
68912;SHT31;55953;51.650;-0.522;2023-01-09T11:42:28;7.65;82.44
68912;SHT31;55953;51.650;-0.522;2023-01-09T11:45:25;7.74;82.23
68912;SHT31;55953;51.650;-0.522;2023-01-09T11:48:00;7.81;80.91
68912;SHT31;55953;51.650;-0.522;2023-01-09T11:50:42;7.93;80.72
68912;SHT31;55953;51.650;-0.522;2023-01-09T11:53:22;7.94;80.46
68912;SHT31;55953;51.650;-0.522;2023-01-09T11:55:55;7.91;80.64
68912;SHT31;55953;51.650;-0.522;2023-01-09T11:58:31;7.91;80.91
68912;SHT31;55953;51.650;-0.522;2023-01-09T12:04:00;7.99;80.63
68912;SHT31;55953;51.650;-0.522;2023-01-09T12:09:27;8.23;80.50
68912;SHT31;55953;51.650;-0.522;2023-01-09T12:12:14;8.28;79.85
68912;SHT31;55953;51.650;-0.522;2023-01-09T12:26:31;8.43;78.05
68912;SHT31;55953;51.650;-0.522;2023-01-09T12:35:16;8.41;77.67
68912;SHT31;55953;51.650;-0.522;2023-01-09T12:38:11;8.37;76.85
68912;SHT31;55953;51.650;-0.522;2023-01-09T12:41:54;8.33;75.58
68912;SHT31;55953;51.650;-0.522;2023-01-09T12:44:26;8.33;74.96
68912;SHT31;55953;51.650;-0.522;2023-01-09T12:56:02;8.41;76.52
68912;SHT31;55953;51.650;-0.522;2023-01-09T12:58:57;8.44;74.85
68912;SHT31;55953;51.650;-0.522;2023-01-09T13:05:08;8.48;74.55
68912;SHT31;55953;51.650;-0.522;2023-01-09T13:07:49;8.47;75.04
68912;SHT31;55953;51.650;-0.522;2023-01-09T13:10:30;8.42;73.81
68912;SHT31;55953;51.650;-0.522;2023-01-09T13:13:06;8.40;74.08
68912;SHT31;55953;51.650;-0.522;2023-01-09T13:15:49;8.34;72.83
68912;SHT31;55953;51.650;-0.522;2023-01-09T13:18:25;8.28;73.07
68912;SHT31;55953;51.650;-0.522;2023-01-09T13:21:07;8.20;74.30
68912;SHT31;55953;51.650;-0.522;2023-01-09T13:23:43;8.09;74.72
68912;SHT31;55953;51.650;-0.522;2023-01-09T13:26:55;8.01;74.73
68912;SHT31;55953;51.650;-0.522;2023-01-09T13:29:30;7.93;74.37
68912;SHT31;55953;51.650;-0.522;2023-01-09T13:34:52;8.01;73.10
68912;SHT31;55953;51.650;-0.522;2023-01-09T13:37:24;8.09;72.69
68912;SHT31;55953;51.650;-0.522;2023-01-09T13:39:57;8.17;72.07
68912;SHT31;55953;51.650;-0.522;2023-01-09T13:42:28;8.25;70.63
68912;SHT31;55953;51.650;-0.522;2023-01-09T13:45:24;8.35;71.36
68912;SHT31;55953;51.650;-0.522;2023-01-09T13:50:37;8.54;69.61
68912;SHT31;55953;51.650;-0.522;2023-01-09T14:01:38;8.86;67.63
68912;SHT31;55953;51.650;-0.522;2023-01-09T14:04:55;8.90;67.37
68912;SHT31;55953;51.650;-0.522;2023-01-09T14:07:14;8.97;68.14
68912;SHT31;55953;51.650;-0.522;2023-01-09T14:09:49;9.02;67.44
68912;SHT31;55953;51.650;-0.522;2023-01-09T14:12:22;9.07;66.97
68912;SHT31;55953;51.650;-0.522;2023-01-09T14:14:52;9.13;66.93
68912;SHT31;55953;51.650;-0.522;2023-01-09T14:20:05;9.13;66.18
68912;SHT31;55953;51.650;-0.522;2023-01-09T14:22:54;9.05;65.20
68912;SHT31;55953;51.650;-0.522;2023-01-09T14:25:44;8.94;66.01
68912;SHT31;55953;51.650;-0.522;2023-01-09T14:28:45;8.85;66.65
68912;SHT31;55953;51.650;-0.522;2023-01-09T14:31:07;8.70;65.74
68912;SHT31;55953;51.650;-0.522;2023-01-09T14:33:36;8.60;65.11
68912;SHT31;55953;51.650;-0.522;2023-01-09T14:38:52;8.43;67.26
68912;SHT31;55953;51.650;-0.522;2023-01-09T14:41:44;8.34;67.00
68912;SHT31;55953;51.650;-0.522;2023-01-09T14:52:46;8.16;68.10
68912;SHT31;55953;51.650;-0.522;2023-01-09T14:55:21;8.19;68.47
68912;SHT31;55953;51.650;-0.522;2023-01-09T14:58:08;8.19;68.40
68912;SHT31;55953;51.650;-0.522;2023-01-09T15:00:50;8.12;67.89
68912;SHT31;55953;51.650;-0.522;2023-01-09T15:03:36;8.03;67.88
68912;SHT31;55953;51.650;-0.522;2023-01-09T15:06:21;7.95;67.78
68912;SHT31;55953;51.650;-0.522;2023-01-09T15:11:28;7.75;68.50
68912;SHT31;55953;51.650;-0.522;2023-01-09T15:13:58;7.70;68.38
68912;SHT31;55953;51.650;-0.522;2023-01-09T15:16:31;7.66;69.01
68912;SHT31;55953;51.650;-0.522;2023-01-09T15:19:00;7.61;69.42
68912;SHT31;55953;51.650;-0.522;2023-01-09T15:21:34;7.55;69.53
68912;SHT31;55953;51.650;-0.522;2023-01-09T15:24:11;7.49;70.09
68912;SHT31;55953;51.650;-0.522;2023-01-09T15:26:52;7.45;71.02
68912;SHT31;55953;51.650;-0.522;2023-01-09T15:29:37;7.36;71.09
68912;SHT31;55953;51.650;-0.522;2023-01-09T15:32:06;7.31;71.07
68912;SHT31;55953;51.650;-0.522;2023-01-09T15:34:43;7.26;71.35
68912;SHT31;55953;51.650;-0.522;2023-01-09T15:39:56;7.19;72.03
68912;SHT31;55953;51.650;-0.522;2023-01-09T15:42:28;7.17;72.42
68912;SHT31;55953;51.650;-0.522;2023-01-09T15:50:44;7.19;72.06
68912;SHT31;55953;51.650;-0.522;2023-01-09T15:53:18;7.15;71.97
68912;SHT31;55953;51.650;-0.522;2023-01-09T15:58:42;7.05;71.79
68912;SHT31;55953;51.650;-0.522;2023-01-09T16:04:09;7.00;71.29
68912;SHT31;55953;51.650;-0.522;2023-01-09T16:06:45;7.01;70.94
68912;SHT31;55953;51.650;-0.522;2023-01-09T16:09:26;7.02;72.08
68912;SHT31;55953;51.650;-0.522;2023-01-09T16:11:57;7.00;71.05
68912;SHT31;55953;51.650;-0.522;2023-01-09T16:14:34;7.01;70.77
68912;SHT31;55953;51.650;-0.522;2023-01-09T16:17:06;7.01;70.45
68912;SHT31;55953;51.650;-0.522;2023-01-09T16:19:50;6.99;70.75
68912;SHT31;55953;51.650;-0.522;2023-01-09T16:24:58;6.98;71.06
68912;SHT31;55953;51.650;-0.522;2023-01-09T16:27:29;6.99;70.85
68912;SHT31;55953;51.650;-0.522;2023-01-09T16:30:00;7.00;70.51
68912;SHT31;55953;51.650;-0.522;2023-01-09T16:32:36;7.00;71.19
68912;SHT31;55953;51.650;-0.522;2023-01-09T16:35:15;6.97;71.52
68912;SHT31;55953;51.650;-0.522;2023-01-09T16:37:46;6.94;71.76
68912;SHT31;55953;51.650;-0.522;2023-01-09T16:42:43;6.88;71.59
68912;SHT31;55953;51.650;-0.522;2023-01-09T16:45:27;6.87;72.15
68912;SHT31;55953;51.650;-0.522;2023-01-09T16:47:58;6.79;72.88
68912;SHT31;55953;51.650;-0.522;2023-01-09T16:50:28;6.74;72.78
68912;SHT31;55953;51.650;-0.522;2023-01-09T16:52:58;6.70;72.69
68912;SHT31;55953;51.650;-0.522;2023-01-09T16:55:28;6.68;73.14
68912;SHT31;55953;51.650;-0.522;2023-01-09T16:57:55;6.67;72.90
68912;SHT31;55953;51.650;-0.522;2023-01-09T17:00:23;6.69;73.04
68912;SHT31;55953;51.650;-0.522;2023-01-09T17:02:51;6.69;73.32
68912;SHT31;55953;51.650;-0.522;2023-01-09T17:05:19;6.67;73.62
68912;SHT31;55953;51.650;-0.522;2023-01-09T17:07:47;6.63;73.54
68912;SHT31;55953;51.650;-0.522;2023-01-09T17:10:19;6.66;72.88
68912;SHT31;55953;51.650;-0.522;2023-01-09T17:12:49;6.72;72.99
68912;SHT31;55953;51.650;-0.522;2023-01-09T17:15:16;6.69;73.33
68912;SHT31;55953;51.650;-0.522;2023-01-09T17:17:44;6.64;73.37
68912;SHT31;55953;51.650;-0.522;2023-01-09T17:20:13;6.60;73.76
68912;SHT31;55953;51.650;-0.522;2023-01-09T17:22:43;6.53;73.98
68912;SHT31;55953;51.650;-0.522;2023-01-09T17:25:13;6.48;74.18
68912;SHT31;55953;51.650;-0.522;2023-01-09T17:28:01;6.43;74.41
68912;SHT31;55953;51.650;-0.522;2023-01-09T17:30:49;6.38;74.60
68912;SHT31;55953;51.650;-0.522;2023-01-09T17:33:17;6.33;74.88
68912;SHT31;55953;51.650;-0.522;2023-01-09T17:35:45;6.29;75.01
68912;SHT31;55953;51.650;-0.522;2023-01-09T17:38:13;6.29;74.85
68912;SHT31;55953;51.650;-0.522;2023-01-09T17:40:42;6.28;75.07
68912;SHT31;55953;51.650;-0.522;2023-01-09T17:43:11;6.24;75.28
68912;SHT31;55953;51.650;-0.522;2023-01-09T17:45:39;6.20;75.44
68912;SHT31;55953;51.650;-0.522;2023-01-09T17:48:12;6.19;75.52
68912;SHT31;55953;51.650;-0.522;2023-01-09T17:50:47;6.19;75.66
68912;SHT31;55953;51.650;-0.522;2023-01-09T17:53:15;6.16;75.89
68912;SHT31;55953;51.650;-0.522;2023-01-09T17:55:44;6.13;75.91
68912;SHT31;55953;51.650;-0.522;2023-01-09T17:58:23;6.13;76.08
68912;SHT31;55953;51.650;-0.522;2023-01-09T18:00:55;6.12;76.21
68912;SHT31;55953;51.650;-0.522;2023-01-09T18:03:24;6.08;76.43
68912;SHT31;55953;51.650;-0.522;2023-01-09T18:05:59;6.01;76.65
68912;SHT31;55953;51.650;-0.522;2023-01-09T18:08:27;5.94;76.99
68912;SHT31;55953;51.650;-0.522;2023-01-09T18:10:55;5.90;77.04
68912;SHT31;55953;51.650;-0.522;2023-01-09T18:13:22;5.90;77.21
68912;SHT31;55953;51.650;-0.522;2023-01-09T18:15:51;5.83;77.47
68912;SHT31;55953;51.650;-0.522;2023-01-09T18:18:18;5.77;77.49
68912;SHT31;55953;51.650;-0.522;2023-01-09T18:20:48;5.77;77.62
68912;SHT31;55953;51.650;-0.522;2023-01-09T18:23:17;5.75;77.57
68912;SHT31;55953;51.650;-0.522;2023-01-09T18:25:45;5.76;77.50
68912;SHT31;55953;51.650;-0.522;2023-01-09T18:28:13;5.74;77.63
68912;SHT31;55953;51.650;-0.522;2023-01-09T18:30:42;5.72;77.67
68912;SHT31;55953;51.650;-0.522;2023-01-09T18:33:12;5.68;77.84
68912;SHT31;55953;51.650;-0.522;2023-01-09T18:35:42;5.65;77.87
68912;SHT31;55953;51.650;-0.522;2023-01-09T18:38:11;5.68;77.82
68912;SHT31;55953;51.650;-0.522;2023-01-09T18:40:40;5.67;77.72
68912;SHT31;55953;51.650;-0.522;2023-01-09T18:43:08;5.69;77.66